LKHK weather

Hradec Králové Airport
Hradec Králové, Hradec Králové Region, Czech Republic

Public forecast

Using degrees Celsius for public forecast. Weather courtesy of forecast.io.

Closest aviation weather report (METAR) to Hradec Králové Airport

Closest report is Pardubice Airport, 15.0 nm (27.7 km) SSW. Retrieved 2020/03/30 06:30 UTC (4 minutes ago):

LKPD 300630Z 01006KT 340V050 9999 FEW030 M01/M09 Q1026 NOSIG RMK BLU BLU

Closest aviation forecast (TAF) to Hradec Králové Airport

Closest forecast is Pardubice Airport, 15.0 nm (27.7 km) SSW. Retrieved 2020/03/30 06:06 UTC (28 minutes ago):

TAF LKPD 300500Z 3006/3106 03010KT CAVOK TEMPO 3008/3012 SCT025 BECMG 3012/3014 32012KT BECMG 3100/3102 27006KT BKN030 TEMPO 3103/3106 5000 SN BKN010